sensor_id;sensor_type;location;lat;lon;timestamp;P1;durP1;ratioP1;P2;durP2;ratioP2
68523;SDS011;55524;51.380;13.372;2022-10-04T00:07:06;4.53;;;1.10;;
68523;SDS011;55524;51.380;13.372;2022-10-04T00:12:37;4.00;;;1.10;;
68523;SDS011;55524;51.380;13.372;2022-10-04T00:15:20;7.82;;;1.20;;
68523;SDS011;55524;51.380;13.372;2022-10-04T00:20:58;5.65;;;1.10;;
68523;SDS011;55524;51.380;13.372;2022-10-04T00:33:53;3.58;;;1.10;;
68523;SDS011;55524;51.380;13.372;2022-10-04T00:44:28;5.93;;;1.27;;
68523;SDS011;55524;51.380;13.372;2022-10-04T00:46:59;4.85;;;1.02;;
68523;SDS011;55524;51.380;13.372;2022-10-04T00:49:52;4.35;;;1.08;;
68523;SDS011;55524;51.380;13.372;2022-10-04T00:52:27;2.95;;;1.17;;
68523;SDS011;55524;51.380;13.372;2022-10-04T00:54:57;3.00;;;1.00;;
68523;SDS011;55524;51.380;13.372;2022-10-04T01:00:42;8.25;;;1.20;;
68523;SDS011;55524;51.380;13.372;2022-10-04T01:03:12;4.65;;;1.30;;
68523;SDS011;55524;51.380;13.372;2022-10-04T01:05:52;7.93;;;1.20;;
68523;SDS011;55524;51.380;13.372;2022-10-04T01:08:43;4.30;;;0.98;;
68523;SDS011;55524;51.380;13.372;2022-10-04T01:11:18;2.40;;;1.00;;
68523;SDS011;55524;51.380;13.372;2022-10-04T01:16:45;3.70;;;1.05;;
68523;SDS011;55524;51.380;13.372;2022-10-04T01:22:09;4.00;;;1.08;;
68523;SDS011;55524;51.380;13.372;2022-10-04T01:24:56;3.30;;;1.00;;
68523;SDS011;55524;51.380;13.372;2022-10-04T01:27:33;3.03;;;1.23;;
68523;SDS011;55524;51.380;13.372;2022-10-04T01:30:20;5.60;;;1.08;;
68523;SDS011;55524;51.380;13.372;2022-10-04T01:32:55;6.55;;;1.10;;
68523;SDS011;55524;51.380;13.372;2022-10-04T01:35:22;6.20;;;1.00;;
68523;SDS011;55524;51.380;13.372;2022-10-04T01:37:51;6.75;;;1.20;;
68523;SDS011;55524;51.380;13.372;2022-10-04T01:40:18;6.50;;;1.02;;
68523;SDS011;55524;51.380;13.372;2022-10-04T01:42:54;9.73;;;1.35;;
68523;SDS011;55524;51.380;13.372;2022-10-04T01:45:44;4.80;;;1.15;;
68523;SDS011;55524;51.380;13.372;2022-10-04T01:48:36;4.70;;;1.00;;
68523;SDS011;55524;51.380;13.372;2022-10-04T01:51:14;4.50;;;0.90;;
68523;SDS011;55524;51.380;13.372;2022-10-04T01:56:40;4.33;;;1.17;;
68523;SDS011;55524;51.380;13.372;2022-10-04T02:02:18;3.58;;;1.05;;
68523;SDS011;55524;51.380;13.372;2022-10-04T02:04:54;4.47;;;0.90;;
68523;SDS011;55524;51.380;13.372;2022-10-04T02:07:41;5.65;;;1.10;;
68523;SDS011;55524;51.380;13.372;2022-10-04T02:10:28;4.10;;;1.10;;
68523;SDS011;55524;51.380;13.372;2022-10-04T02:12:57;3.05;;;1.00;;
68523;SDS011;55524;51.380;13.372;2022-10-04T02:15:24;4.55;;;1.17;;
68523;SDS011;55524;51.380;13.372;2022-10-04T02:18:13;4.70;;;1.25;;
68523;SDS011;55524;51.380;13.372;2022-10-04T02:20:57;3.88;;;0.98;;
68523;SDS011;55524;51.380;13.372;2022-10-04T02:23:23;7.68;;;1.30;;
68523;SDS011;55524;51.380;13.372;2022-10-04T02:26:00;5.65;;;1.10;;
68523;SDS011;55524;51.380;13.372;2022-10-04T02:28:33;6.05;;;1.35;;
68523;SDS011;55524;51.380;13.372;2022-10-04T02:31:09;12.32;;;1.20;;
68523;SDS011;55524;51.380;13.372;2022-10-04T02:34:15;6.13;;;1.13;;
68523;SDS011;55524;51.380;13.372;2022-10-04T02:36:59;10.48;;;1.67;;
68523;SDS011;55524;51.380;13.372;2022-10-04T02:39:39;6.93;;;1.38;;
68523;SDS011;55524;51.380;13.372;2022-10-04T02:45:59;8.43;;;1.60;;
68523;SDS011;55524;51.380;13.372;2022-10-04T02:51:27;7.88;;;2.03;;
68523;SDS011;55524;51.380;13.372;2022-10-04T02:56:53;3.80;;;1.25;;
68523;SDS011;55524;51.380;13.372;2022-10-04T02:59:44;6.05;;;1.67;;
68523;SDS011;55524;51.380;13.372;2022-10-04T03:04:49;6.82;;;1.52;;
68523;SDS011;55524;51.380;13.372;2022-10-04T03:07:37;7.13;;;1.42;;
68523;SDS011;55524;51.380;13.372;2022-10-04T03:10:26;6.82;;;1.50;;
68523;SDS011;55524;51.380;13.372;2022-10-04T03:13:13;4.65;;;1.38;;
68523;SDS011;55524;51.380;13.372;2022-10-04T03:15:49;6.28;;;1.40;;
68523;SDS011;55524;51.380;13.372;2022-10-04T03:18:36;9.18;;;1.48;;
68523;SDS011;55524;51.380;13.372;2022-10-04T03:21:15;5.25;;;1.30;;
68523;SDS011;55524;51.380;13.372;2022-10-04T03:23:53;5.75;;;1.27;;
68523;SDS011;55524;51.380;13.372;2022-10-04T03:26:31;3.60;;;1.20;;
68523;SDS011;55524;51.380;13.372;2022-10-04T03:29:10;9.15;;;1.25;;
68523;SDS011;55524;51.380;13.372;2022-10-04T03:31:48;4.22;;;1.25;;
68523;SDS011;55524;51.380;13.372;2022-10-04T03:34:26;5.85;;;1.63;;
68523;SDS011;55524;51.380;13.372;2022-10-04T03:37:11;8.85;;;1.30;;
68523;SDS011;55524;51.380;13.372;2022-10-04T03:40:09;5.82;;;1.10;;
68523;SDS011;55524;51.380;13.372;2022-10-04T03:43:11;7.30;;;1.13;;
68523;SDS011;55524;51.380;13.372;2022-10-04T03:45:47;5.13;;;1.27;;
68523;SDS011;55524;51.380;13.372;2022-10-04T03:48:19;4.25;;;1.25;;
68523;SDS011;55524;51.380;13.372;2022-10-04T03:51:25;8.48;;;1.20;;
68523;SDS011;55524;51.380;13.372;2022-10-04T03:54:14;6.18;;;1.00;;
68523;SDS011;55524;51.380;13.372;2022-10-04T03:56:48;9.77;;;1.10;;
68523;SDS011;55524;51.380;13.372;2022-10-04T03:59:22;4.57;;;0.95;;
68523;SDS011;55524;51.380;13.372;2022-10-04T04:01:59;3.25;;;1.00;;
68523;SDS011;55524;51.380;13.372;2022-10-04T04:05:13;6.70;;;1.20;;
68523;SDS011;55524;51.380;13.372;2022-10-04T04:10:41;5.75;;;1.00;;
68523;SDS011;55524;51.380;13.372;2022-10-04T04:16:15;1.58;;;0.90;;
68523;SDS011;55524;51.380;13.372;2022-10-04T04:19:09;5.47;;;1.05;;
68523;SDS011;55524;51.380;13.372;2022-10-04T04:21:56;11.00;;;1.20;;
68523;SDS011;55524;51.380;13.372;2022-10-04T04:24:26;7.85;;;1.08;;
68523;SDS011;55524;51.380;13.372;2022-10-04T04:26:57;8.45;;;1.17;;
68523;SDS011;55524;51.380;13.372;2022-10-04T04:29:35;3.58;;;1.08;;
68523;SDS011;55524;51.380;13.372;2022-10-04T04:35:29;7.80;;;1.30;;
68523;SDS011;55524;51.380;13.372;2022-10-04T04:38:13;4.43;;;1.00;;
68523;SDS011;55524;51.380;13.372;2022-10-04T04:41:07;10.25;;;1.23;;
68523;SDS011;55524;51.380;13.372;2022-10-04T04:44:00;6.38;;;1.40;;
68523;SDS011;55524;51.380;13.372;2022-10-04T04:46:50;5.82;;;1.25;;
68523;SDS011;55524;51.380;13.372;2022-10-04T04:49:20;7.30;;;1.60;;
68523;SDS011;55524;51.380;13.372;2022-10-04T04:51:57;7.90;;;1.60;;
68523;SDS011;55524;51.380;13.372;2022-10-04T04:54:33;6.05;;;1.42;;
68523;SDS011;55524;51.380;13.372;2022-10-04T04:57:08;8.32;;;1.40;;
68523;SDS011;55524;51.380;13.372;2022-10-04T04:59:41;9.38;;;1.42;;
68523;SDS011;55524;51.380;13.372;2022-10-04T05:13:43;6.35;;;1.73;;
68523;SDS011;55524;51.380;13.372;2022-10-04T05:16:19;4.78;;;1.65;;
68523;SDS011;55524;51.380;13.372;2022-10-04T05:19:21;6.82;;;1.88;;
68523;SDS011;55524;51.380;13.372;2022-10-04T05:21:58;4.13;;;1.83;;
68523;SDS011;55524;51.380;13.372;2022-10-04T05:24:43;7.18;;;2.28;;
68523;SDS011;55524;51.380;13.372;2022-10-04T05:35:22;7.97;;;2.13;;
68523;SDS011;55524;51.380;13.372;2022-10-04T05:43:45;8.93;;;3.03;;
68523;SDS011;55524;51.380;13.372;2022-10-04T05:49:16;4.65;;;2.50;;
68523;SDS011;55524;51.380;13.372;2022-10-04T05:54:46;12.13;;;2.67;;
68523;SDS011;55524;51.380;13.372;2022-10-04T05:57:50;3.85;;;2.35;;
68523;SDS011;55524;51.380;13.372;2022-10-04T06:17:56;4.38;;;1.85;;
68523;SDS011;55524;51.380;13.372;2022-10-04T06:23:55;12.27;;;2.20;;
68523;SDS011;55524;51.380;13.372;2022-10-04T06:27:00;6.93;;;2.15;;
68523;SDS011;55524;51.380;13.372;2022-10-04T06:29:52;23.55;;;4.28;;
68523;SDS011;55524;51.380;13.372;2022-10-04T06:40:48;6.95;;;1.90;;
68523;SDS011;55524;51.380;13.372;2022-10-04T06:46:49;11.18;;;3.25;;
68523;SDS011;55524;51.380;13.372;2022-10-04T07:01:37;22.70;;;3.22;;
68523;SDS011;55524;51.380;13.372;2022-10-04T07:12:52;4.97;;;1.65;;
68523;SDS011;55524;51.380;13.372;2022-10-04T07:15:33;13.13;;;2.35;;
68523;SDS011;55524;51.380;13.372;2022-10-04T07:18:19;8.27;;;1.88;;
68523;SDS011;55524;51.380;13.372;2022-10-04T07:21:10;4.35;;;1.90;;
68523;SDS011;55524;51.380;13.372;2022-10-04T07:23:52;8.60;;;2.50;;
68523;SDS011;55524;51.380;13.372;2022-10-04T07:26:36;5.55;;;1.75;;
68523;SDS011;55524;51.380;13.372;2022-10-04T07:32:21;4.30;;;1.80;;
68523;SDS011;55524;51.380;13.372;2022-10-04T07:37:22;6.15;;;1.80;;
68523;SDS011;55524;51.380;13.372;2022-10-04T07:40:14;3.92;;;2.08;;
68523;SDS011;55524;51.380;13.372;2022-10-04T07:43:10;6.63;;;1.90;;
68523;SDS011;55524;51.380;13.372;2022-10-04T07:45:46;7.45;;;1.92;;
68523;SDS011;55524;51.380;13.372;2022-10-04T07:48:32;9.13;;;2.45;;
68523;SDS011;55524;51.380;13.372;2022-10-04T07:51:16;9.10;;;1.60;;
68523;SDS011;55524;51.380;13.372;2022-10-04T07:56:25;11.73;;;2.33;;
68523;SDS011;55524;51.380;13.372;2022-10-04T08:01:46;6.50;;;1.77;;
68523;SDS011;55524;51.380;13.372;2022-10-04T08:04:45;5.55;;;1.70;;
68523;SDS011;55524;51.380;13.372;2022-10-04T08:07:58;4.43;;;1.50;;
68523;SDS011;55524;51.380;13.372;2022-10-04T08:16:51;5.03;;;1.65;;
68523;SDS011;55524;51.380;13.372;2022-10-04T09:00:57;11.07;;;1.98;;
68523;SDS011;55524;51.380;13.372;2022-10-04T09:32:36;9.55;;;1.95;;
68523;SDS011;55524;51.380;13.372;2022-10-04T10:42:04;3.53;;;0.93;;
68523;SDS011;55524;51.380;13.372;2022-10-04T11:42:54;3.30;;;1.15;;
68523;SDS011;55524;51.380;13.372;2022-10-04T11:50:57;3.67;;;1.20;;
68523;SDS011;55524;51.380;13.372;2022-10-04T11:57:04;4.45;;;1.25;;
68523;SDS011;55524;51.380;13.372;2022-10-04T12:20:36;4.75;;;1.10;;
68523;SDS011;55524;51.380;13.372;2022-10-04T12:26:32;1.35;;;0.90;;
68523;SDS011;55524;51.380;13.372;2022-10-04T12:31:33;5.28;;;1.00;;
68523;SDS011;55524;51.380;13.372;2022-10-04T13:36:08;3.78;;;0.90;;
68523;SDS011;55524;51.380;13.372;2022-10-04T13:45:02;8.52;;;1.50;;
68523;SDS011;55524;51.380;13.372;2022-10-04T13:48:06;4.32;;;0.90;;
68523;SDS011;55524;51.380;13.372;2022-10-04T14:02:52;3.92;;;0.90;;
68523;SDS011;55524;51.380;13.372;2022-10-04T14:08:56;2.92;;;0.90;;
68523;SDS011;55524;51.380;13.372;2022-10-04T14:11:56;3.58;;;1.10;;
68523;SDS011;55524;51.380;13.372;2022-10-04T14:23:10;2.92;;;1.00;;
68523;SDS011;55524;51.380;13.372;2022-10-04T15:15:57;11.80;;;1.70;;
68523;SDS011;55524;51.380;13.372;2022-10-04T15:22:24;2.25;;;0.90;;
68523;SDS011;55524;51.380;13.372;2022-10-04T15:28:44;4.13;;;0.80;;
68523;SDS011;55524;51.380;13.372;2022-10-04T15:40:22;1.88;;;0.73;;
68523;SDS011;55524;51.380;13.372;2022-10-04T16:00:19;6.90;;;0.93;;
68523;SDS011;55524;51.380;13.372;2022-10-04T16:03:19;2.92;;;0.95;;
68523;SDS011;55524;51.380;13.372;2022-10-04T16:06:27;5.93;;;0.90;;
68523;SDS011;55524;51.380;13.372;2022-10-04T16:32:26;10.82;;;1.00;;
68523;SDS011;55524;51.380;13.372;2022-10-04T16:43:25;2.80;;;1.00;;
68523;SDS011;55524;51.380;13.372;2022-10-04T16:46:04;4.85;;;1.00;;
68523;SDS011;55524;51.380;13.372;2022-10-04T17:06:58;2.95;;;1.17;;
68523;SDS011;55524;51.380;13.372;2022-10-04T17:09:31;2.67;;;1.35;;
68523;SDS011;55524;51.380;13.372;2022-10-04T17:32:34;1.38;;;1.10;;
68523;SDS011;55524;51.380;13.372;2022-10-04T17:38:27;4.13;;;1.38;;
68523;SDS011;55524;51.380;13.372;2022-10-04T17:49:15;3.65;;;1.30;;
68523;SDS011;55524;51.380;13.372;2022-10-04T17:52:04;1.42;;;1.20;;
68523;SDS011;55524;51.380;13.372;2022-10-04T17:55:02;2.35;;;1.20;;
68523;SDS011;55524;51.380;13.372;2022-10-04T18:07:07;5.40;;;3.00;;
68523;SDS011;55524;51.380;13.372;2022-10-04T18:09:48;4.85;;;3.10;;
68523;SDS011;55524;51.380;13.372;2022-10-04T18:12:54;5.50;;;3.13;;
68523;SDS011;55524;51.380;13.372;2022-10-04T18:15:51;7.03;;;3.17;;
68523;SDS011;55524;51.380;13.372;2022-10-04T18:18:29;4.50;;;2.97;;
68523;SDS011;55524;51.380;13.372;2022-10-04T18:24:20;4.47;;;3.25;;
68523;SDS011;55524;51.380;13.372;2022-10-04T18:27:24;4.35;;;2.53;;
68523;SDS011;55524;51.380;13.372;2022-10-04T18:30:19;4.43;;;2.80;;
68523;SDS011;55524;51.380;13.372;2022-10-04T18:33:20;4.97;;;3.00;;
68523;SDS011;55524;51.380;13.372;2022-10-04T18:36:02;2.60;;;2.40;;
68523;SDS011;55524;51.380;13.372;2022-10-04T18:38:36;3.95;;;2.67;;
68523;SDS011;55524;51.380;13.372;2022-10-04T18:41:27;7.18;;;2.38;;
68523;SDS011;55524;51.380;13.372;2022-10-04T18:44:56;6.72;;;2.83;;
68523;SDS011;55524;51.380;13.372;2022-10-04T18:47:49;7.38;;;2.78;;
68523;SDS011;55524;51.380;13.372;2022-10-04T19:07:08;1.95;;;1.80;;
68523;SDS011;55524;51.380;13.372;2022-10-04T19:26:46;3.85;;;2.08;;
68523;SDS011;55524;51.380;13.372;2022-10-04T19:32:03;3.83;;;2.03;;
68523;SDS011;55524;51.380;13.372;2022-10-04T19:41:18;4.28;;;3.83;;
68523;SDS011;55524;51.380;13.372;2022-10-04T19:55:25;4.80;;;2.42;;
68523;SDS011;55524;51.380;13.372;2022-10-04T20:01:06;6.05;;;2.80;;
68523;SDS011;55524;51.380;13.372;2022-10-04T20:04:19;4.97;;;2.92;;
68523;SDS011;55524;51.380;13.372;2022-10-04T20:07:03;5.68;;;3.08;;
68523;SDS011;55524;51.380;13.372;2022-10-04T20:13:03;4.97;;;3.80;;
68523;SDS011;55524;51.380;13.372;2022-10-04T20:16:03;5.60;;;3.63;;
68523;SDS011;55524;51.380;13.372;2022-10-04T20:21:08;6.88;;;3.25;;
68523;SDS011;55524;51.380;13.372;2022-10-04T20:23:56;5.55;;;2.67;;
68523;SDS011;55524;51.380;13.372;2022-10-04T20:26:45;5.45;;;3.10;;
68523;SDS011;55524;51.380;13.372;2022-10-04T20:35:14;3.72;;;2.50;;
68523;SDS011;55524;51.380;13.372;2022-10-04T20:38:17;4.53;;;2.70;;
68523;SDS011;55524;51.380;13.372;2022-10-04T20:40:43;4.15;;;2.50;;
68523;SDS011;55524;51.380;13.372;2022-10-04T20:45:42;2.92;;;2.20;;
68523;SDS011;55524;51.380;13.372;2022-10-04T20:48:32;5.00;;;2.65;;
68523;SDS011;55524;51.380;13.372;2022-10-04T20:51:05;5.03;;;2.58;;
68523;SDS011;55524;51.380;13.372;2022-10-04T20:58:53;4.38;;;2.97;;
68523;SDS011;55524;51.380;13.372;2022-10-04T21:04:26;5.15;;;3.65;;
68523;SDS011;55524;51.380;13.372;2022-10-04T21:07:08;5.43;;;3.30;;
68523;SDS011;55524;51.380;13.372;2022-10-04T21:09:56;4.75;;;3.55;;
68523;SDS011;55524;51.380;13.372;2022-10-04T21:15:18;5.57;;;3.20;;
68523;SDS011;55524;51.380;13.372;2022-10-04T21:18:15;2.70;;;2.50;;
68523;SDS011;55524;51.380;13.372;2022-10-04T21:20:57;3.88;;;2.70;;
68523;SDS011;55524;51.380;13.372;2022-10-04T21:23:32;4.15;;;2.70;;
68523;SDS011;55524;51.380;13.372;2022-10-04T21:29:11;6.20;;;2.00;;
68523;SDS011;55524;51.380;13.372;2022-10-04T21:31:45;3.80;;;2.38;;
68523;SDS011;55524;51.380;13.372;2022-10-04T21:34:33;3.60;;;2.22;;
68523;SDS011;55524;51.380;13.372;2022-10-04T21:36:59;5.28;;;2.60;;
68523;SDS011;55524;51.380;13.372;2022-10-04T21:39:34;4.30;;;2.30;;
68523;SDS011;55524;51.380;13.372;2022-10-04T21:42:21;4.25;;;2.25;;
68523;SDS011;55524;51.380;13.372;2022-10-04T21:45:02;4.60;;;2.47;;
68523;SDS011;55524;51.380;13.372;2022-10-04T21:47:47;8.10;;;2.63;;
68523;SDS011;55524;51.380;13.372;2022-10-04T21:50:34;5.93;;;2.60;;
68523;SDS011;55524;51.380;13.372;2022-10-04T21:53:12;5.63;;;2.80;;
68523;SDS011;55524;51.380;13.372;2022-10-04T21:55:38;3.20;;;2.47;;
68523;SDS011;55524;51.380;13.372;2022-10-04T21:58:08;5.65;;;2.35;;
68523;SDS011;55524;51.380;13.372;2022-10-04T22:00:37;4.25;;;2.30;;
68523;SDS011;55524;51.380;13.372;2022-10-04T22:03:13;2.95;;;2.35;;
68523;SDS011;55524;51.380;13.372;2022-10-04T22:05:59;2.55;;;2.35;;
68523;SDS011;55524;51.380;13.372;2022-10-04T22:08:37;2.55;;;2.10;;
68523;SDS011;55524;51.380;13.372;2022-10-04T22:11:12;4.10;;;2.40;;
68523;SDS011;55524;51.380;13.372;2022-10-04T22:13:39;5.10;;;2.47;;
68523;SDS011;55524;51.380;13.372;2022-10-04T22:16:08;3.60;;;2.28;;
68523;SDS011;55524;51.380;13.372;2022-10-04T22:18:55;5.18;;;2.58;;
68523;SDS011;55524;51.380;13.372;2022-10-04T22:21:24;6.53;;;2.78;;
68523;SDS011;55524;51.380;13.372;2022-10-04T22:24:12;3.90;;;2.30;;
68523;SDS011;55524;51.380;13.372;2022-10-04T22:26:46;5.93;;;2.45;;
68523;SDS011;55524;51.380;13.372;2022-10-04T22:29:32;3.83;;;2.33;;
68523;SDS011;55524;51.380;13.372;2022-10-04T22:32:05;2.78;;;2.13;;
68523;SDS011;55524;51.380;13.372;2022-10-04T22:34:57;6.80;;;2.63;;
68523;SDS011;55524;51.380;13.372;2022-10-04T22:38:09;3.15;;;2.10;;
68523;SDS011;55524;51.380;13.372;2022-10-04T22:40:38;3.72;;;2.35;;
68523;SDS011;55524;51.380;13.372;2022-10-04T22:43:37;3.70;;;2.45;;
68523;SDS011;55524;51.380;13.372;2022-10-04T22:46:26;5.97;;;2.63;;
68523;SDS011;55524;51.380;13.372;2022-10-04T22:49:11;3.53;;;2.13;;
68523;SDS011;55524;51.380;13.372;2022-10-04T22:51:40;4.30;;;2.35;;
68523;SDS011;55524;51.380;13.372;2022-10-04T22:54:09;4.50;;;2.30;;
68523;SDS011;55524;51.380;13.372;2022-10-04T22:56:57;3.15;;;2.35;;
68523;SDS011;55524;51.380;13.372;2022-10-04T22:59:37;3.70;;;2.25;;
68523;SDS011;55524;51.380;13.372;2022-10-04T23:02:15;2.53;;;2.33;;
68523;SDS011;55524;51.380;13.372;2022-10-04T23:05:22;6.70;;;2.50;;
68523;SDS011;55524;51.380;13.372;2022-10-04T23:08:12;5.22;;;2.35;;
68523;SDS011;55524;51.380;13.372;2022-10-04T23:10:59;6.13;;;2.17;;
68523;SDS011;55524;51.380;13.372;2022-10-04T23:13:37;4.15;;;2.45;;
68523;SDS011;55524;51.380;13.372;2022-10-04T23:16:15;5.32;;;2.30;;
68523;SDS011;55524;51.380;13.372;2022-10-04T23:19:08;3.90;;;2.38;;
68523;SDS011;55524;51.380;13.372;2022-10-04T23:21:59;4.75;;;2.00;;
68523;SDS011;55524;51.380;13.372;2022-10-04T23:24:42;5.22;;;2.03;;
68523;SDS011;55524;51.380;13.372;2022-10-04T23:27:31;3.20;;;2.28;;
68523;SDS011;55524;51.380;13.372;2022-10-04T23:30:49;2.17;;;1.90;;
68523;SDS011;55524;51.380;13.372;2022-10-04T23:33:30;4.47;;;1.80;;
68523;SDS011;55524;51.380;13.372;2022-10-04T23:36:07;2.58;;;2.38;;
68523;SDS011;55524;51.380;13.372;2022-10-04T23:38:58;5.13;;;2.10;;
68523;SDS011;55524;51.380;13.372;2022-10-04T23:42:12;2.28;;;1.90;;
68523;SDS011;55524;51.380;13.372;2022-10-04T23:45:10;2.22;;;2.00;;
68523;SDS011;55524;51.380;13.372;2022-10-04T23:48:23;2.40;;;2.20;;
68523;SDS011;55524;51.380;13.372;2022-10-04T23:51:33;2.22;;;1.88;;
68523;SDS011;55524;51.380;13.372;2022-10-04T23:54:20;3.20;;;2.20;;
68523;SDS011;55524;51.380;13.372;2022-10-04T23:56:50;3.50;;;2.00;;
68523;SDS011;55524;51.380;13.372;2022-10-04T23:59:37;2.63;;;1.88;;
